createdAt,value
2022-10-12T01:47:52.440Z,96613.48
2022-10-12T02:19:29.543Z,96615.31
2022-10-12T02:41:54.262Z,96615.55
2022-10-12T02:49:24.328Z,96619.32
2022-10-12T03:15:09.459Z,96613.52
2022-10-12T03:17:39.756Z,96617.21
2022-10-12T03:20:12.768Z,96619.83
2022-10-12T03:22:43.762Z,96616.74
2022-10-12T03:25:13.482Z,96616.91
2022-10-12T03:27:42.922Z,96622.23
2022-10-12T03:30:20.982Z,96624.60
2022-10-12T03:32:53.748Z,96628.42
2022-10-12T03:35:24.580Z,96630.23
2022-10-12T03:37:55.887Z,96628.61
2022-10-12T03:40:24.826Z,96633.80
2022-10-12T03:42:55.287Z,96630.55
2022-10-12T03:45:26.017Z,96632.52
2022-10-12T03:48:05.100Z,96631.80
2022-10-12T03:50:35.608Z,96626.34
2022-10-12T03:53:07.190Z,96631.38
2022-10-12T03:55:36.449Z,96627.56
2022-10-12T03:58:08.232Z,96629.45
2022-10-12T04:00:58.797Z,96631.38
2022-10-12T04:03:56.941Z,96632.88
2022-10-12T04:06:58.335Z,96635.60
2022-10-12T04:10:04.707Z,96636.55
2022-10-12T04:13:10.425Z,96635.95
2022-10-12T04:16:18.164Z,96636.72
2022-10-12T04:19:21.024Z,96638.09
2022-10-12T04:22:25.091Z,96640.52
2022-10-12T04:45:39.625Z,96641.48
2022-10-12T04:49:00.770Z,96643.65
2022-10-12T04:56:06.756Z,96649.33
2022-10-12T04:59:55.706Z,96648.98
2022-10-12T05:07:31.140Z,96657.99
2022-10-12T05:09:59.033Z,96654.48
2022-10-12T05:12:27.115Z,96655.13
2022-10-12T05:14:54.931Z,96659.38
2022-10-12T05:17:22.779Z,96662.85
2022-10-12T05:19:50.672Z,96664.78
2022-10-12T05:22:18.560Z,96664.33
2022-10-12T05:24:50.049Z,96664.73
2022-10-12T05:27:21.178Z,96667.90
2022-10-12T05:29:49.048Z,96669.82
2022-10-12T05:32:17.327Z,96670.89
2022-10-12T05:34:45.337Z,96671.17
2022-10-12T05:37:13.325Z,96673.52
2022-10-12T05:39:41.144Z,96677.84
2022-10-12T05:42:09.283Z,96678.78
2022-10-12T05:44:38.239Z,96677.23
2022-10-12T05:47:06.856Z,96677.13
2022-10-12T05:49:34.842Z,96678.31
2022-10-12T05:52:03.111Z,96680.06
2022-10-12T05:54:30.938Z,96680.39
2022-10-12T05:56:58.968Z,96680.49
2022-10-12T05:59:26.872Z,96685.57
2022-10-12T06:01:54.649Z,96688.91
2022-10-12T06:04:22.525Z,96688.92
2022-10-12T06:06:50.383Z,96688.25
2022-10-12T06:09:18.484Z,96692.77
2022-10-12T06:11:46.328Z,96696.98
2022-10-12T06:14:14.993Z,96701.45
2022-10-12T06:16:42.835Z,96702.64
2022-10-12T06:19:12.056Z,96706.67
2022-10-12T06:21:39.967Z,96708.73
2022-10-12T06:24:07.972Z,96711.13
2022-10-12T06:26:35.893Z,96708.57
2022-10-12T06:29:03.972Z,96704.61
2022-10-12T06:31:32.635Z,96707.54
2022-10-12T06:34:00.564Z,96708.83
2022-10-12T06:36:28.438Z,96709.88
2022-10-12T06:38:56.366Z,96709.30
2022-10-12T06:41:24.204Z,96706.80
2022-10-12T06:43:51.978Z,96708.20
2022-10-12T06:46:19.984Z,96710.60
2022-10-12T06:48:47.988Z,96713.86
2022-10-12T06:51:15.987Z,96715.00
2022-10-12T06:53:44.403Z,96716.98
2022-10-12T06:56:12.403Z,96718.73
2022-10-12T06:58:41.007Z,96720.24
2022-10-12T07:01:10.874Z,96719.96
2022-10-12T07:03:39.464Z,96725.23
2022-10-12T07:06:13.450Z,96727.29
2022-10-12T07:08:42.562Z,96725.66
2022-10-12T07:11:12.914Z,96726.89
2022-10-12T07:13:40.997Z,96725.63
2022-10-12T07:16:08.930Z,96725.27
2022-10-12T07:18:37.051Z,96726.11
2022-10-12T07:21:04.999Z,96728.56
2022-10-12T07:23:34.239Z,96730.64
2022-10-12T07:26:02.061Z,96728.86
2022-10-12T07:28:30.734Z,96727.39
2022-10-12T07:31:04.411Z,96731.85
2022-10-12T07:33:36.832Z,96731.52
2022-10-12T07:36:14.675Z,96731.48
2022-10-12T07:38:48.618Z,96732.89
2022-10-12T07:41:17.782Z,96734.20
2022-10-12T07:43:45.727Z,96729.66
2022-10-12T07:46:13.810Z,96726.15
2022-10-12T07:48:45.888Z,96724.34
2022-10-12T07:51:15.546Z,96717.88
2022-10-12T07:53:43.438Z,96716.42
2022-10-12T07:56:15.354Z,96718.96
2022-10-12T07:58:49.039Z,96721.92
2022-10-12T08:01:18.584Z,96720.39
2022-10-12T08:03:47.174Z,96717.46
2022-10-12T08:06:18.341Z,96713.38
2022-10-12T08:08:47.451Z,96718.28
2022-10-12T08:11:16.137Z,96715.97
2022-10-12T08:13:45.009Z,96716.61
2022-10-12T08:16:16.765Z,96712.38
2022-10-12T08:18:44.915Z,96712.54
2022-10-12T08:21:14.661Z,96715.14
2022-10-12T08:23:44.730Z,96714.55
2022-10-12T08:26:13.297Z,96712.32
2022-10-12T08:28:41.751Z,96710.02
2022-10-12T08:31:16.470Z,96708.86
2022-10-12T08:33:44.665Z,96709.59
2022-10-12T08:36:13.761Z,96710.42
2022-10-12T08:38:43.840Z,96713.18
2022-10-12T08:41:33.420Z,96711.36
2022-10-12T08:44:39.081Z,96710.23
2022-10-12T08:47:17.744Z,96707.07
2022-10-12T08:49:50.073Z,96707.14
2022-10-12T08:52:36.507Z,96710.70
2022-10-12T08:55:24.792Z,96713.59
2022-10-12T08:57:52.718Z,96713.73
2022-10-12T09:00:20.755Z,96715.40
2022-10-12T09:03:03.570Z,96713.54
2022-10-12T09:05:41.127Z,96711.50
2022-10-12T09:08:41.205Z,96714.88
2022-10-12T09:11:36.428Z,96711.27
2022-10-12T09:14:27.595Z,96709.38
2022-10-12T09:16:57.535Z,96705.22
2022-10-12T09:19:35.812Z,96702.34
2022-10-12T09:22:06.078Z,96702.03
2022-10-12T09:24:39.354Z,96703.75
2022-10-12T09:27:16.406Z,96707.24
2022-10-12T09:30:02.064Z,96709.48
2022-10-12T09:32:53.822Z,96708.25
2022-10-12T09:35:21.773Z,96711.23
2022-10-12T09:37:53.129Z,96710.52
2022-10-12T09:40:28.762Z,96706.95
2022-10-12T09:42:59.942Z,96708.41
2022-10-12T09:45:30.236Z,96707.80
2022-10-12T09:48:24.097Z,96708.55
2022-10-12T09:50:59.454Z,96706.91
2022-10-12T09:53:30.747Z,96707.02
2022-10-12T09:56:05.013Z,96708.02
2022-10-12T09:58:41.815Z,96708.33
2022-10-12T10:01:19.601Z,96705.86
2022-10-12T10:03:52.096Z,96704.56
2022-10-12T10:06:25.288Z,96702.44
2022-10-12T10:08:53.278Z,96701.55
2022-10-12T10:11:25.844Z,96700.94
2022-10-12T10:13:55.001Z,96700.61
2022-10-12T10:16:26.183Z,96702.03
2022-10-12T10:18:54.135Z,96702.83
2022-10-12T10:21:33.724Z,96702.39
2022-10-12T10:24:08.300Z,96699.62
2022-10-12T10:26:57.572Z,96699.34
2022-10-12T10:29:40.841Z,96695.77
2022-10-12T10:32:24.567Z,96695.01
2022-10-12T10:35:14.242Z,96692.38
2022-10-12T10:37:48.151Z,96694.27
2022-10-12T10:40:25.496Z,96690.55
2022-10-12T10:42:57.037Z,96688.83
2022-10-12T10:45:33.035Z,96689.52
2022-10-12T10:48:11.541Z,96686.86
2022-10-12T10:50:43.700Z,96685.86
2022-10-12T10:53:21.241Z,96685.09
2022-10-12T10:56:04.036Z,96685.02
2022-10-12T10:58:46.561Z,96679.64
2022-10-12T11:01:38.164Z,96675.16
2022-10-12T11:04:16.598Z,96673.58
2022-10-12T11:06:54.903Z,96672.84
2022-10-12T11:09:38.277Z,96673.08
2022-10-12T11:12:13.628Z,96671.02
2022-10-12T11:14:48.155Z,96672.36
2022-10-12T11:17:28.516Z,96669.25
2022-10-12T11:20:25.890Z,96668.31
2022-10-12T11:23:09.683Z,96670.80
2022-10-12T11:25:50.231Z,96667.71
2022-10-12T11:28:20.542Z,96666.80
2022-10-12T11:30:52.025Z,96665.56
2022-10-12T11:33:28.089Z,96661.44
2022-10-12T11:35:58.859Z,96659.36
2022-10-12T11:38:45.831Z,96657.37
2022-10-12T11:41:34.549Z,96659.46
2022-10-12T11:44:04.748Z,96657.70
2022-10-12T11:46:38.661Z,96653.98
2022-10-12T11:49:16.343Z,96655.63
2022-10-12T11:51:48.323Z,96659.60
2022-10-12T11:54:44.482Z,96655.70
2022-10-12T11:57:18.651Z,96656.55
2022-10-12T11:59:59.298Z,96658.27
2022-10-12T12:02:27.110Z,96654.58
2022-10-12T12:04:56.197Z,96651.23
2022-10-12T12:07:43.262Z,96650.36
2022-10-12T12:10:26.639Z,96649.41
2022-10-12T12:13:11.484Z,96652.83
2022-10-12T12:15:52.547Z,96652.69
2022-10-12T12:18:33.480Z,96654.75
2022-10-12T12:21:09.278Z,96652.40
2022-10-12T12:23:54.092Z,96653.05
2022-10-12T12:26:31.134Z,96654.06
2022-10-12T12:29:12.131Z,96653.25
2022-10-12T12:31:40.052Z,96656.77
2022-10-12T12:34:14.921Z,96657.05
2022-10-12T12:36:46.659Z,96654.63
2022-10-12T12:39:30.659Z,96660.23
2022-10-12T12:42:02.332Z,96663.63
2022-10-12T12:44:33.829Z,96667.00
2022-10-12T12:47:01.758Z,96663.48
2022-10-12T12:49:41.223Z,96661.56
2022-10-12T12:52:18.315Z,96664.50
2022-10-12T12:55:14.060Z,96663.02
2022-10-12T12:58:00.593Z,96664.42
2022-10-12T13:03:44.876Z,96669.43
2022-10-12T13:06:15.731Z,96671.26
2022-10-12T13:09:03.880Z,96667.36
2022-10-12T13:11:44.004Z,96662.29
2022-10-12T13:14:39.530Z,96664.69
2022-10-12T13:17:33.512Z,96660.11
2022-10-12T13:20:15.824Z,96661.30
2022-10-12T13:22:45.804Z,96664.08
2022-10-12T13:25:45.451Z,96667.39
2022-10-12T13:28:20.966Z,96666.46
2022-10-12T13:31:07.753Z,96666.58
2022-10-12T13:33:51.794Z,96664.66
2022-10-12T13:36:35.281Z,96663.38
2022-10-12T13:39:23.484Z,96661.99
2022-10-12T13:41:56.060Z,96659.52
2022-10-12T13:44:28.436Z,96660.23
2022-10-12T13:47:05.415Z,96664.00
2022-10-12T13:49:43.169Z,96664.23
2022-10-12T13:52:14.013Z,96665.69
2022-10-12T13:54:46.242Z,96669.82
2022-10-12T13:57:35.683Z,96668.73
2022-10-12T14:00:22.528Z,96670.52
2022-10-12T14:03:06.587Z,96673.64
2022-10-12T14:05:44.918Z,96674.96
2022-10-12T14:08:49.565Z,96674.46
2022-10-12T14:12:08.687Z,96674.97
2022-10-12T14:14:52.889Z,96672.54
2022-10-12T14:21:48.734Z,96669.44
2022-10-12T14:28:57.005Z,96671.23
2022-10-12T14:31:53.897Z,96675.05
2022-10-12T14:34:37.674Z,96675.24
2022-10-12T14:37:09.796Z,96674.58
2022-10-12T14:39:41.298Z,96674.77
2022-10-12T14:42:29.740Z,96672.96
2022-10-12T14:44:59.025Z,96670.98
2022-10-12T14:48:06.863Z,96671.92
2022-10-12T15:00:19.529Z,96670.05
2022-10-12T15:03:04.376Z,96673.48
2022-10-12T15:05:46.265Z,96675.10
2022-10-12T15:08:20.964Z,96675.48
2022-10-12T15:10:53.416Z,96674.91
2022-10-12T15:13:22.082Z,96674.80
2022-10-12T15:15:55.509Z,96672.27
2022-10-12T15:18:24.448Z,96671.39
2022-10-12T15:20:57.938Z,96668.46
2022-10-12T15:23:26.249Z,96668.72
2022-10-12T15:26:01.964Z,96663.75
2022-10-12T15:28:36.998Z,96666.15
2022-10-12T15:31:21.755Z,96667.34
2022-10-12T15:34:23.964Z,96665.34
2022-10-12T15:36:53.684Z,96665.58
2022-10-12T15:39:21.948Z,96666.70
2022-10-12T15:41:50.141Z,96665.17
2022-10-12T15:44:18.399Z,96663.87
2022-10-12T15:46:50.914Z,96664.67
2022-10-12T15:49:21.847Z,96664.77
2022-10-12T15:51:54.205Z,96669.27
2022-10-12T15:54:22.815Z,96670.68
2022-10-12T15:56:51.457Z,96668.70
2022-10-12T15:59:19.525Z,96667.77
2022-10-12T16:10:15.150Z,96667.92
2022-10-12T16:12:46.634Z,96672.67
2022-10-12T16:15:17.612Z,96674.87
2022-10-12T16:18:04.550Z,96676.53
2022-10-12T16:20:54.501Z,96676.33
2022-10-12T16:24:31.118Z,96676.49
2022-10-12T16:27:04.501Z,96676.34
2022-10-12T16:29:34.028Z,96675.36
2022-10-12T16:32:02.320Z,96675.60
2022-10-12T16:34:31.338Z,96677.52
2022-10-12T16:37:00.386Z,96680.30
2022-10-12T16:39:29.356Z,96679.21
2022-10-12T16:41:57.490Z,96676.72
2022-10-12T16:44:40.257Z,96675.64
2022-10-12T16:47:12.690Z,96674.17
2022-10-12T16:49:40.702Z,96671.31
2022-10-12T16:52:09.148Z,96674.05
2022-10-12T16:54:37.672Z,96678.68
2022-10-12T16:57:06.249Z,96677.93
2022-10-12T16:59:36.493Z,96674.17
2022-10-12T17:02:05.270Z,96677.61
2022-10-12T17:04:36.020Z,96676.55
2022-10-12T17:07:04.835Z,96676.37
2022-10-12T17:09:33.475Z,96672.27
2022-10-12T17:12:01.686Z,96672.67
2022-10-12T17:14:30.293Z,96669.34
2022-10-12T17:17:00.062Z,96670.45
2022-10-12T17:19:32.385Z,96671.45
2022-10-12T17:22:04.464Z,96668.16
2022-10-12T17:24:35.115Z,96669.23
2022-10-12T17:27:04.989Z,96670.77
2022-10-12T17:29:38.179Z,96668.64
2022-10-12T17:32:59.796Z,96669.88
2022-10-12T17:35:39.698Z,96672.65
2022-10-12T17:38:07.713Z,96673.66
2022-10-12T17:40:39.063Z,96675.76
2022-10-12T17:43:07.517Z,96675.56
2022-10-12T17:45:35.379Z,96677.04
2022-10-12T17:48:03.525Z,96672.03
2022-10-12T17:50:32.897Z,96668.03
2022-10-12T17:53:00.774Z,96666.84
2022-10-12T17:55:47.674Z,96662.08
2022-10-12T17:58:15.885Z,96663.05
2022-10-12T18:00:43.953Z,96664.02
2022-10-12T18:03:12.514Z,96663.73
2022-10-12T18:05:40.567Z,96664.01
2022-10-12T18:08:08.457Z,96668.00
2022-10-12T18:10:40.906Z,96665.20
2022-10-12T18:13:09.240Z,96661.02
2022-10-12T18:15:42.519Z,96661.98
2022-10-12T18:18:15.060Z,96659.48
2022-10-12T18:20:43.510Z,96662.84
2022-10-12T18:23:11.825Z,96663.81
2022-10-12T18:25:41.918Z,96659.13
2022-10-12T18:28:11.798Z,96658.34
2022-10-12T18:30:47.582Z,96657.17
2022-10-12T18:33:16.562Z,96657.91
2022-10-12T18:35:44.963Z,96663.15
2022-10-12T18:38:12.962Z,96669.39
2022-10-12T18:40:42.341Z,96673.05
2022-10-12T18:43:10.858Z,96677.59
2022-10-12T18:45:43.749Z,96678.30
2022-10-12T18:48:12.629Z,96680.42
2022-10-12T18:50:40.506Z,96679.20
2022-10-12T18:53:08.640Z,96676.44
2022-10-12T18:55:38.314Z,96676.48
2022-10-12T18:58:06.323Z,96677.17
2022-10-12T19:00:34.341Z,96676.86
2022-10-12T19:03:02.241Z,96678.80
2022-10-12T19:05:30.820Z,96676.40
2022-10-12T19:07:58.778Z,96676.01
2022-10-12T19:10:26.689Z,96677.73
2022-10-12T19:12:54.629Z,96676.61
2022-10-12T19:15:22.533Z,96676.63
2022-10-12T19:17:50.400Z,96677.00
2022-10-12T19:20:18.484Z,96677.24
2022-10-12T19:22:46.380Z,96677.45
2022-10-12T19:25:14.470Z,96675.78
2022-10-12T19:27:42.358Z,96676.21
2022-10-12T19:30:10.667Z,96677.20
2022-10-12T19:32:38.776Z,96682.05
2022-10-12T19:35:07.078Z,96686.29
2022-10-12T19:37:36.302Z,96689.94
2022-10-12T19:40:07.762Z,96694.41
2022-10-12T19:42:42.524Z,96696.49
2022-10-12T19:45:11.030Z,96697.16
2022-10-12T19:47:39.070Z,96701.97
2022-10-12T19:50:10.037Z,96699.14
2022-10-12T19:52:38.196Z,96703.02
2022-10-12T19:55:06.677Z,96703.81
2022-10-12T19:57:38.599Z,96700.37
2022-10-12T20:00:08.774Z,96699.11
2022-10-12T20:02:41.792Z,96700.13
2022-10-12T20:05:11.699Z,96709.83
2022-10-12T20:07:40.090Z,96707.33
2022-10-12T20:10:08.620Z,96706.38
2022-10-12T20:12:36.705Z,96706.15
2022-10-12T20:15:05.241Z,96703.97
2022-10-12T20:17:41.362Z,96704.55
2022-10-12T20:20:13.125Z,96708.34
2022-10-12T20:30:38.693Z,96700.98
2022-10-12T20:33:41.496Z,96705.07
2022-10-12T20:36:28.702Z,96704.45
2022-10-12T20:39:08.525Z,96704.61
2022-10-12T20:42:11.499Z,96698.77
2022-10-12T21:09:37.126Z,96715.04
2022-10-12T21:19:42.961Z,96712.55
2022-10-12T21:35:27.621Z,96704.92
2022-10-12T21:37:55.581Z,96695.99
2022-10-12T21:40:23.580Z,96697.33
2022-10-12T21:42:55.045Z,96691.17
2022-10-12T21:45:54.188Z,96700.49
2022-10-12T21:59:50.883Z,96683.91
2022-10-12T22:02:19.085Z,96693.05
2022-10-12T22:04:47.505Z,96691.20
2022-10-12T22:07:15.405Z,96688.24
2022-10-12T22:09:44.993Z,96686.96
2022-10-12T22:59:08.328Z,96669.40
2022-10-12T23:01:37.165Z,96670.73
2022-10-12T23:04:13.644Z,96672.23
2022-10-12T23:07:42.378Z,96678.77
2022-10-12T23:10:26.697Z,96682.48
2022-10-12T23:12:54.797Z,96686.81
2022-10-12T23:15:24.045Z,96682.88
2022-10-12T23:22:52.388Z,96680.88
